sensor_id;sensor_type;location;lat;lon;timestamp;P1;durP1;ratioP1;P2;durP2;ratioP2
15354;SDS011;7777;52.254;9.618;2022-12-18T00:01:21;31.73;;;15.57;;
15354;SDS011;7777;52.254;9.618;2022-12-18T00:03:50;26.87;;;13.27;;
15354;SDS011;7777;52.254;9.618;2022-12-18T00:06:18;27.37;;;12.80;;
15354;SDS011;7777;52.254;9.618;2022-12-18T00:08:45;20.60;;;9.97;;
15354;SDS011;7777;52.254;9.618;2022-12-18T00:11:12;18.10;;;10.33;;
15354;SDS011;7777;52.254;9.618;2022-12-18T00:13:41;14.67;;;9.30;;
15354;SDS011;7777;52.254;9.618;2022-12-18T00:16:10;15.87;;;8.93;;
15354;SDS011;7777;52.254;9.618;2022-12-18T00:18:46;11.40;;;7.67;;
15354;SDS011;7777;52.254;9.618;2022-12-18T00:21:13;15.47;;;8.13;;
15354;SDS011;7777;52.254;9.618;2022-12-18T00:23:40;16.07;;;8.30;;
15354;SDS011;7777;52.254;9.618;2022-12-18T00:26:10;15.80;;;9.00;;
15354;SDS011;7777;52.254;9.618;2022-12-18T00:28:45;14.53;;;8.40;;
15354;SDS011;7777;52.254;9.618;2022-12-18T00:31:12;15.30;;;9.33;;
15354;SDS011;7777;52.254;9.618;2022-12-18T00:33:41;13.83;;;7.97;;
15354;SDS011;7777;52.254;9.618;2022-12-18T00:36:15;13.33;;;8.30;;
15354;SDS011;7777;52.254;9.618;2022-12-18T00:38:44;18.27;;;9.10;;
15354;SDS011;7777;52.254;9.618;2022-12-18T00:41:11;16.40;;;8.90;;
15354;SDS011;7777;52.254;9.618;2022-12-18T00:43:39;15.30;;;8.57;;
15354;SDS011;7777;52.254;9.618;2022-12-18T00:46:05;20.13;;;8.63;;
15354;SDS011;7777;52.254;9.618;2022-12-18T00:48:31;14.80;;;8.33;;
15354;SDS011;7777;52.254;9.618;2022-12-18T00:50:57;15.67;;;7.40;;
15354;SDS011;7777;52.254;9.618;2022-12-18T00:53:23;13.73;;;7.40;;
15354;SDS011;7777;52.254;9.618;2022-12-18T00:55:49;14.87;;;6.90;;
15354;SDS011;7777;52.254;9.618;2022-12-18T00:58:15;14.03;;;7.13;;
15354;SDS011;7777;52.254;9.618;2022-12-18T01:00:42;11.43;;;6.77;;
15354;SDS011;7777;52.254;9.618;2022-12-18T01:03:09;16.17;;;7.73;;
15354;SDS011;7777;52.254;9.618;2022-12-18T01:05:41;19.40;;;8.37;;
15354;SDS011;7777;52.254;9.618;2022-12-18T01:08:07;12.83;;;7.53;;
15354;SDS011;7777;52.254;9.618;2022-12-18T01:10:33;13.10;;;8.30;;
15354;SDS011;7777;52.254;9.618;2022-12-18T01:12:59;17.10;;;7.40;;
15354;SDS011;7777;52.254;9.618;2022-12-18T01:15:24;14.50;;;7.27;;
15354;SDS011;7777;52.254;9.618;2022-12-18T01:17:51;13.53;;;7.27;;
15354;SDS011;7777;52.254;9.618;2022-12-18T01:20:18;12.17;;;7.30;;
15354;SDS011;7777;52.254;9.618;2022-12-18T01:22:44;11.93;;;6.53;;
15354;SDS011;7777;52.254;9.618;2022-12-18T01:25:09;11.70;;;6.33;;
15354;SDS011;7777;52.254;9.618;2022-12-18T01:27:35;11.13;;;5.37;;
15354;SDS011;7777;52.254;9.618;2022-12-18T01:30:01;9.63;;;5.70;;
15354;SDS011;7777;52.254;9.618;2022-12-18T01:32:29;10.30;;;5.70;;
15354;SDS011;7777;52.254;9.618;2022-12-18T01:34:56;9.43;;;5.27;;
15354;SDS011;7777;52.254;9.618;2022-12-18T01:37:21;8.57;;;5.13;;
15354;SDS011;7777;52.254;9.618;2022-12-18T01:39:47;11.47;;;5.00;;
15354;SDS011;7777;52.254;9.618;2022-12-18T01:42:15;8.57;;;5.13;;
15354;SDS011;7777;52.254;9.618;2022-12-18T01:52:47;12.03;;;6.27;;
15354;SDS011;7777;52.254;9.618;2022-12-18T01:55:17;11.90;;;7.03;;
15354;SDS011;7777;52.254;9.618;2022-12-18T01:57:47;13.17;;;6.80;;
15354;SDS011;7777;52.254;9.618;2022-12-18T02:00:16;13.50;;;6.63;;
15354;SDS011;7777;52.254;9.618;2022-12-18T02:02:44;16.37;;;6.87;;
15354;SDS011;7777;52.254;9.618;2022-12-18T02:05:12;11.70;;;6.93;;
15354;SDS011;7777;52.254;9.618;2022-12-18T02:10:32;13.23;;;7.57;;
15354;SDS011;7777;52.254;9.618;2022-12-18T02:13:14;13.23;;;7.67;;
15354;SDS011;7777;52.254;9.618;2022-12-18T02:15:50;16.30;;;7.27;;
15354;SDS011;7777;52.254;9.618;2022-12-18T02:18:44;13.07;;;7.13;;
15354;SDS011;7777;52.254;9.618;2022-12-18T02:21:20;12.30;;;6.30;;
15354;SDS011;7777;52.254;9.618;2022-12-18T02:27:23;13.70;;;6.47;;
15354;SDS011;7777;52.254;9.618;2022-12-18T02:29:58;14.80;;;6.93;;
15354;SDS011;7777;52.254;9.618;2022-12-18T02:32:27;12.30;;;6.57;;
15354;SDS011;7777;52.254;9.618;2022-12-18T02:34:59;13.53;;;7.03;;
15354;SDS011;7777;52.254;9.618;2022-12-18T02:37:28;13.97;;;7.20;;
15354;SDS011;7777;52.254;9.618;2022-12-18T02:39:56;14.53;;;7.53;;
15354;SDS011;7777;52.254;9.618;2022-12-18T02:42:23;15.23;;;7.17;;
15354;SDS011;7777;52.254;9.618;2022-12-18T02:44:50;13.83;;;7.90;;
15354;SDS011;7777;52.254;9.618;2022-12-18T02:47:22;16.97;;;7.13;;
15354;SDS011;7777;52.254;9.618;2022-12-18T02:58:26;13.87;;;7.37;;
15354;SDS011;7777;52.254;9.618;2022-12-18T03:03:47;15.13;;;7.00;;
15354;SDS011;7777;52.254;9.618;2022-12-18T03:06:33;12.40;;;6.67;;
15354;SDS011;7777;52.254;9.618;2022-12-18T03:09:09;13.50;;;6.60;;
15354;SDS011;7777;52.254;9.618;2022-12-18T03:11:40;11.07;;;6.47;;
15354;SDS011;7777;52.254;9.618;2022-12-18T03:14:30;13.77;;;7.90;;
15354;SDS011;7777;52.254;9.618;2022-12-18T03:17:03;11.43;;;6.97;;
15354;SDS011;7777;52.254;9.618;2022-12-18T03:19:31;13.67;;;7.27;;
15354;SDS011;7777;52.254;9.618;2022-12-18T03:22:00;16.57;;;6.80;;
15354;SDS011;7777;52.254;9.618;2022-12-18T03:24:28;12.77;;;7.43;;
15354;SDS011;7777;52.254;9.618;2022-12-18T03:27:02;15.07;;;6.83;;
15354;SDS011;7777;52.254;9.618;2022-12-18T03:32:10;14.20;;;7.17;;
15354;SDS011;7777;52.254;9.618;2022-12-18T03:34:49;10.50;;;6.47;;
15354;SDS011;7777;52.254;9.618;2022-12-18T03:37:17;10.33;;;6.90;;
15354;SDS011;7777;52.254;9.618;2022-12-18T03:39:43;12.83;;;6.63;;
15354;SDS011;7777;52.254;9.618;2022-12-18T03:42:24;12.27;;;6.83;;
15354;SDS011;7777;52.254;9.618;2022-12-18T03:50:42;16.57;;;7.90;;
15354;SDS011;7777;52.254;9.618;2022-12-18T03:53:46;10.80;;;6.20;;
15354;SDS011;7777;52.254;9.618;2022-12-18T03:56:21;13.43;;;6.50;;
15354;SDS011;7777;52.254;9.618;2022-12-18T03:58:52;13.10;;;6.67;;
15354;SDS011;7777;52.254;9.618;2022-12-18T04:01:19;11.87;;;6.40;;
15354;SDS011;7777;52.254;9.618;2022-12-18T04:03:50;11.23;;;6.43;;
15354;SDS011;7777;52.254;9.618;2022-12-18T04:06:16;10.73;;;6.13;;
15354;SDS011;7777;52.254;9.618;2022-12-18T04:08:43;12.23;;;6.00;;
15354;SDS011;7777;52.254;9.618;2022-12-18T04:11:09;13.97;;;7.03;;
15354;SDS011;7777;52.254;9.618;2022-12-18T04:13:36;13.57;;;7.13;;
15354;SDS011;7777;52.254;9.618;2022-12-18T04:16:03;16.77;;;6.57;;
15354;SDS011;7777;52.254;9.618;2022-12-18T04:18:30;12.70;;;6.77;;
15354;SDS011;7777;52.254;9.618;2022-12-18T04:20:55;11.73;;;6.47;;
15354;SDS011;7777;52.254;9.618;2022-12-18T04:23:21;12.10;;;6.87;;
15354;SDS011;7777;52.254;9.618;2022-12-18T04:25:47;10.77;;;6.70;;
15354;SDS011;7777;52.254;9.618;2022-12-18T04:28:13;12.47;;;7.27;;
15354;SDS011;7777;52.254;9.618;2022-12-18T04:30:39;13.97;;;6.80;;
15354;SDS011;7777;52.254;9.618;2022-12-18T04:33:08;11.37;;;6.43;;
15354;SDS011;7777;52.254;9.618;2022-12-18T04:35:35;10.73;;;6.67;;
15354;SDS011;7777;52.254;9.618;2022-12-18T04:38:01;10.63;;;6.30;;
15354;SDS011;7777;52.254;9.618;2022-12-18T04:40:27;12.07;;;6.57;;
15354;SDS011;7777;52.254;9.618;2022-12-18T04:42:53;11.30;;;6.67;;
15354;SDS011;7777;52.254;9.618;2022-12-18T04:45:18;10.50;;;6.63;;
15354;SDS011;7777;52.254;9.618;2022-12-18T04:47:44;9.70;;;5.93;;
15354;SDS011;7777;52.254;9.618;2022-12-18T04:50:10;11.63;;;6.47;;
15354;SDS011;7777;52.254;9.618;2022-12-18T04:52:35;12.90;;;6.40;;
15354;SDS011;7777;52.254;9.618;2022-12-18T04:55:01;13.27;;;6.63;;
15354;SDS011;7777;52.254;9.618;2022-12-18T04:57:28;11.53;;;6.07;;
15354;SDS011;7777;52.254;9.618;2022-12-18T04:59:53;12.23;;;6.83;;
15354;SDS011;7777;52.254;9.618;2022-12-18T05:02:19;15.17;;;5.93;;
15354;SDS011;7777;52.254;9.618;2022-12-18T05:04:45;10.90;;;5.33;;
15354;SDS011;7777;52.254;9.618;2022-12-18T05:07:10;10.97;;;5.03;;
15354;SDS011;7777;52.254;9.618;2022-12-18T05:09:36;9.70;;;4.97;;
15354;SDS011;7777;52.254;9.618;2022-12-18T05:12:02;11.07;;;5.33;;
15354;SDS011;7777;52.254;9.618;2022-12-18T05:14:28;8.73;;;4.70;;
15354;SDS011;7777;52.254;9.618;2022-12-18T05:16:54;10.23;;;5.10;;
15354;SDS011;7777;52.254;9.618;2022-12-18T05:19:20;11.43;;;5.13;;
15354;SDS011;7777;52.254;9.618;2022-12-18T05:21:46;11.33;;;5.17;;
15354;SDS011;7777;52.254;9.618;2022-12-18T05:24:11;9.63;;;4.73;;
15354;SDS011;7777;52.254;9.618;2022-12-18T05:26:37;9.53;;;5.10;;
15354;SDS011;7777;52.254;9.618;2022-12-18T05:29:03;10.50;;;5.60;;
15354;SDS011;7777;52.254;9.618;2022-12-18T05:31:29;11.00;;;5.83;;
15354;SDS011;7777;52.254;9.618;2022-12-18T05:33:54;9.20;;;5.20;;
15354;SDS011;7777;52.254;9.618;2022-12-18T05:36:20;10.47;;;5.50;;
15354;SDS011;7777;52.254;9.618;2022-12-18T05:38:46;9.77;;;5.80;;
15354;SDS011;7777;52.254;9.618;2022-12-18T05:41:12;9.83;;;5.37;;
15354;SDS011;7777;52.254;9.618;2022-12-18T05:43:38;10.80;;;5.80;;
15354;SDS011;7777;52.254;9.618;2022-12-18T05:46:09;9.23;;;4.83;;
15354;SDS011;7777;52.254;9.618;2022-12-18T05:48:38;12.73;;;5.70;;
15354;SDS011;7777;52.254;9.618;2022-12-18T05:51:05;10.03;;;5.20;;
15354;SDS011;7777;52.254;9.618;2022-12-18T05:53:37;8.60;;;4.97;;
15354;SDS011;7777;52.254;9.618;2022-12-18T05:56:04;10.23;;;4.97;;
15354;SDS011;7777;52.254;9.618;2022-12-18T05:58:32;10.83;;;5.07;;
15354;SDS011;7777;52.254;9.618;2022-12-18T06:01:05;11.33;;;4.70;;
15354;SDS011;7777;52.254;9.618;2022-12-18T06:03:51;10.07;;;5.10;;
15354;SDS011;7777;52.254;9.618;2022-12-18T06:06:18;7.63;;;4.90;;
15354;SDS011;7777;52.254;9.618;2022-12-18T06:08:52;9.33;;;4.57;;
15354;SDS011;7777;52.254;9.618;2022-12-18T06:11:20;10.53;;;5.10;;
15354;SDS011;7777;52.254;9.618;2022-12-18T06:13:49;9.60;;;4.77;;
15354;SDS011;7777;52.254;9.618;2022-12-18T06:16:17;9.37;;;4.90;;
15354;SDS011;7777;52.254;9.618;2022-12-18T06:18:42;8.77;;;4.23;;
15354;SDS011;7777;52.254;9.618;2022-12-18T06:21:08;8.70;;;4.77;;
15354;SDS011;7777;52.254;9.618;2022-12-18T06:23:34;9.43;;;4.73;;
15354;SDS011;7777;52.254;9.618;2022-12-18T06:26:07;11.03;;;5.77;;
15354;SDS011;7777;52.254;9.618;2022-12-18T06:28:35;10.23;;;4.90;;
15354;SDS011;7777;52.254;9.618;2022-12-18T06:31:02;9.83;;;5.13;;
15354;SDS011;7777;52.254;9.618;2022-12-18T06:33:29;9.93;;;5.33;;
15354;SDS011;7777;52.254;9.618;2022-12-18T06:36:05;9.50;;;5.60;;
15354;SDS011;7777;52.254;9.618;2022-12-18T06:38:35;9.30;;;4.83;;
15354;SDS011;7777;52.254;9.618;2022-12-18T06:41:21;9.90;;;5.10;;
15354;SDS011;7777;52.254;9.618;2022-12-18T06:43:47;12.73;;;5.40;;
15354;SDS011;7777;52.254;9.618;2022-12-18T06:46:13;12.97;;;6.23;;
15354;SDS011;7777;52.254;9.618;2022-12-18T06:48:39;9.30;;;6.00;;
15354;SDS011;7777;52.254;9.618;2022-12-18T06:51:05;12.33;;;6.10;;
15354;SDS011;7777;52.254;9.618;2022-12-18T06:53:31;10.37;;;6.37;;
15354;SDS011;7777;52.254;9.618;2022-12-18T06:56:01;10.67;;;6.30;;
15354;SDS011;7777;52.254;9.618;2022-12-18T06:58:29;11.37;;;6.87;;
15354;SDS011;7777;52.254;9.618;2022-12-18T07:01:01;9.97;;;6.07;;
15354;SDS011;7777;52.254;9.618;2022-12-18T07:03:29;11.60;;;6.03;;
15354;SDS011;7777;52.254;9.618;2022-12-18T07:05:55;11.73;;;6.23;;
15354;SDS011;7777;52.254;9.618;2022-12-18T07:08:21;10.37;;;6.23;;
15354;SDS011;7777;52.254;9.618;2022-12-18T07:10:47;15.73;;;7.60;;
15354;SDS011;7777;52.254;9.618;2022-12-18T07:13:14;9.97;;;6.00;;
15354;SDS011;7777;52.254;9.618;2022-12-18T07:15:43;12.03;;;6.57;;
15354;SDS011;7777;52.254;9.618;2022-12-18T07:18:09;13.33;;;6.63;;
15354;SDS011;7777;52.254;9.618;2022-12-18T07:20:35;14.40;;;6.90;;
15354;SDS011;7777;52.254;9.618;2022-12-18T07:23:02;12.30;;;6.77;;
15354;SDS011;7777;52.254;9.618;2022-12-18T07:25:30;13.53;;;6.70;;
15354;SDS011;7777;52.254;9.618;2022-12-18T07:27:59;12.13;;;6.53;;
15354;SDS011;7777;52.254;9.618;2022-12-18T07:30:25;10.93;;;6.30;;
15354;SDS011;7777;52.254;9.618;2022-12-18T07:32:51;13.50;;;6.60;;
15354;SDS011;7777;52.254;9.618;2022-12-18T07:35:17;11.63;;;6.50;;
15354;SDS011;7777;52.254;9.618;2022-12-18T07:37:43;11.07;;;6.33;;
15354;SDS011;7777;52.254;9.618;2022-12-18T07:40:09;10.90;;;6.00;;
15354;SDS011;7777;52.254;9.618;2022-12-18T07:42:36;10.40;;;6.27;;
15354;SDS011;7777;52.254;9.618;2022-12-18T07:45:02;13.33;;;6.80;;
15354;SDS011;7777;52.254;9.618;2022-12-18T07:47:28;8.73;;;5.37;;
15354;SDS011;7777;52.254;9.618;2022-12-18T07:49:54;13.00;;;6.80;;
15354;SDS011;7777;52.254;9.618;2022-12-18T07:52:20;11.50;;;6.57;;
15354;SDS011;7777;52.254;9.618;2022-12-18T07:54:46;11.70;;;6.63;;
15354;SDS011;7777;52.254;9.618;2022-12-18T07:57:14;14.10;;;6.40;;
15354;SDS011;7777;52.254;9.618;2022-12-18T07:59:41;12.07;;;6.60;;
15354;SDS011;7777;52.254;9.618;2022-12-18T08:02:07;11.63;;;7.07;;
15354;SDS011;7777;52.254;9.618;2022-12-18T08:04:33;9.90;;;6.13;;
15354;SDS011;7777;52.254;9.618;2022-12-18T08:06:58;14.27;;;6.60;;
15354;SDS011;7777;52.254;9.618;2022-12-18T08:09:24;13.60;;;7.03;;
15354;SDS011;7777;52.254;9.618;2022-12-18T08:11:50;12.87;;;7.30;;
15354;SDS011;7777;52.254;9.618;2022-12-18T08:14:16;12.67;;;7.03;;
15354;SDS011;7777;52.254;9.618;2022-12-18T08:16:41;11.10;;;6.73;;
15354;SDS011;7777;52.254;9.618;2022-12-18T08:19:07;12.00;;;6.33;;
15354;SDS011;7777;52.254;9.618;2022-12-18T08:21:35;12.23;;;5.70;;
15354;SDS011;7777;52.254;9.618;2022-12-18T08:24:02;11.90;;;6.37;;
15354;SDS011;7777;52.254;9.618;2022-12-18T08:26:29;12.97;;;6.50;;
15354;SDS011;7777;52.254;9.618;2022-12-18T08:28:56;10.97;;;6.23;;
15354;SDS011;7777;52.254;9.618;2022-12-18T08:31:24;12.07;;;6.57;;
15354;SDS011;7777;52.254;9.618;2022-12-18T08:33:52;12.43;;;6.87;;
15354;SDS011;7777;52.254;9.618;2022-12-18T08:36:19;11.57;;;6.27;;
15354;SDS011;7777;52.254;9.618;2022-12-18T08:38:46;11.50;;;6.77;;
15354;SDS011;7777;52.254;9.618;2022-12-18T08:41:12;13.43;;;6.93;;
15354;SDS011;7777;52.254;9.618;2022-12-18T08:43:40;12.30;;;6.47;;
15354;SDS011;7777;52.254;9.618;2022-12-18T08:46:25;14.00;;;7.43;;
15354;SDS011;7777;52.254;9.618;2022-12-18T08:48:57;14.07;;;8.20;;
15354;SDS011;7777;52.254;9.618;2022-12-18T08:51:23;15.40;;;7.63;;
15354;SDS011;7777;52.254;9.618;2022-12-18T08:53:49;16.27;;;8.13;;
15354;SDS011;7777;52.254;9.618;2022-12-18T08:56:15;13.20;;;7.37;;
15354;SDS011;7777;52.254;9.618;2022-12-18T08:58:41;15.07;;;7.30;;
15354;SDS011;7777;52.254;9.618;2022-12-18T09:01:08;13.00;;;7.70;;
15354;SDS011;7777;52.254;9.618;2022-12-18T09:03:35;13.37;;;7.37;;
15354;SDS011;7777;52.254;9.618;2022-12-18T09:06:02;12.57;;;7.23;;
15354;SDS011;7777;52.254;9.618;2022-12-18T09:08:28;11.53;;;7.00;;
15354;SDS011;7777;52.254;9.618;2022-12-18T09:10:54;13.53;;;7.60;;
15354;SDS011;7777;52.254;9.618;2022-12-18T09:13:20;13.77;;;6.90;;
15354;SDS011;7777;52.254;9.618;2022-12-18T09:15:50;16.20;;;7.20;;
15354;SDS011;7777;52.254;9.618;2022-12-18T09:18:19;10.87;;;5.77;;
15354;SDS011;7777;52.254;9.618;2022-12-18T09:20:46;12.10;;;6.93;;
15354;SDS011;7777;52.254;9.618;2022-12-18T09:23:12;13.07;;;7.13;;
15354;SDS011;7777;52.254;9.618;2022-12-18T09:25:39;18.30;;;7.47;;
15354;SDS011;7777;52.254;9.618;2022-12-18T09:28:06;13.77;;;7.80;;
15354;SDS011;7777;52.254;9.618;2022-12-18T09:30:42;16.03;;;6.77;;
15354;SDS011;7777;52.254;9.618;2022-12-18T09:33:12;12.60;;;6.73;;
15354;SDS011;7777;52.254;9.618;2022-12-18T09:35:39;11.33;;;6.30;;
15354;SDS011;7777;52.254;9.618;2022-12-18T09:38:06;11.70;;;7.17;;
15354;SDS011;7777;52.254;9.618;2022-12-18T09:40:41;12.03;;;6.53;;
15354;SDS011;7777;52.254;9.618;2022-12-18T09:43:21;11.40;;;6.63;;
15354;SDS011;7777;52.254;9.618;2022-12-18T09:46:28;11.13;;;6.03;;
15354;SDS011;7777;52.254;9.618;2022-12-18T09:49:00;9.37;;;5.83;;
15354;SDS011;7777;52.254;9.618;2022-12-18T09:51:37;14.37;;;6.50;;
15354;SDS011;7777;52.254;9.618;2022-12-18T09:54:12;10.50;;;6.03;;
15354;SDS011;7777;52.254;9.618;2022-12-18T09:56:47;10.73;;;6.30;;
15354;SDS011;7777;52.254;9.618;2022-12-18T09:59:16;10.77;;;6.73;;
15354;SDS011;7777;52.254;9.618;2022-12-18T10:02:20;14.17;;;6.70;;
15354;SDS011;7777;52.254;9.618;2022-12-18T10:05:11;13.40;;;6.50;;
15354;SDS011;7777;52.254;9.618;2022-12-18T10:13:41;10.63;;;6.70;;
15354;SDS011;7777;52.254;9.618;2022-12-18T10:27:31;11.77;;;5.40;;
15354;SDS011;7777;52.254;9.618;2022-12-18T10:29:56;11.17;;;5.30;;
15354;SDS011;7777;52.254;9.618;2022-12-18T10:32:24;10.23;;;5.93;;
15354;SDS011;7777;52.254;9.618;2022-12-18T10:34:55;9.40;;;5.47;;
15354;SDS011;7777;52.254;9.618;2022-12-18T10:37:24;9.83;;;5.77;;
15354;SDS011;7777;52.254;9.618;2022-12-18T10:40:10;10.80;;;6.17;;
15354;SDS011;7777;52.254;9.618;2022-12-18T10:42:39;10.93;;;5.97;;
15354;SDS011;7777;52.254;9.618;2022-12-18T10:45:14;9.77;;;5.10;;
15354;SDS011;7777;52.254;9.618;2022-12-18T10:47:43;10.23;;;5.10;;
15354;SDS011;7777;52.254;9.618;2022-12-18T10:50:19;11.23;;;6.17;;
15354;SDS011;7777;52.254;9.618;2022-12-18T10:52:53;12.97;;;6.00;;
15354;SDS011;7777;52.254;9.618;2022-12-18T10:55:38;9.73;;;5.40;;
15354;SDS011;7777;52.254;9.618;2022-12-18T10:58:13;8.43;;;5.10;;
15354;SDS011;7777;52.254;9.618;2022-12-18T11:01:01;9.17;;;4.83;;
15354;SDS011;7777;52.254;9.618;2022-12-18T11:06:16;9.00;;;5.07;;
15354;SDS011;7777;52.254;9.618;2022-12-18T11:08:57;7.87;;;4.60;;
15354;SDS011;7777;52.254;9.618;2022-12-18T11:11:24;6.40;;;4.53;;
15354;SDS011;7777;52.254;9.618;2022-12-18T11:14:01;10.30;;;5.30;;
15354;SDS011;7777;52.254;9.618;2022-12-18T11:16:34;9.57;;;5.60;;
15354;SDS011;7777;52.254;9.618;2022-12-18T11:19:19;11.20;;;5.17;;
15354;SDS011;7777;52.254;9.618;2022-12-18T11:22:03;9.13;;;5.47;;
15354;SDS011;7777;52.254;9.618;2022-12-18T11:24:58;8.10;;;5.07;;
15354;SDS011;7777;52.254;9.618;2022-12-18T11:27:55;8.97;;;5.10;;
15354;SDS011;7777;52.254;9.618;2022-12-18T11:30:29;9.73;;;4.70;;
15354;SDS011;7777;52.254;9.618;2022-12-18T11:35:37;12.07;;;6.27;;
15354;SDS011;7777;52.254;9.618;2022-12-18T11:38:34;10.60;;;5.63;;
15354;SDS011;7777;52.254;9.618;2022-12-18T11:44:28;8.77;;;5.50;;
15354;SDS011;7777;52.254;9.618;2022-12-18T11:47:21;9.60;;;4.80;;
15354;SDS011;7777;52.254;9.618;2022-12-18T11:50:17;7.77;;;4.30;;
15354;SDS011;7777;52.254;9.618;2022-12-18T11:52:48;8.80;;;4.37;;
15354;SDS011;7777;52.254;9.618;2022-12-18T11:55:15;7.77;;;4.50;;
15354;SDS011;7777;52.254;9.618;2022-12-18T12:00:47;8.17;;;4.00;;
15354;SDS011;7777;52.254;9.618;2022-12-18T12:06:22;7.50;;;4.13;;
15354;SDS011;7777;52.254;9.618;2022-12-18T12:14:54;7.77;;;4.67;;
15354;SDS011;7777;52.254;9.618;2022-12-18T12:17:45;7.00;;;3.80;;
15354;SDS011;7777;52.254;9.618;2022-12-18T12:20:49;7.57;;;3.57;;
15354;SDS011;7777;52.254;9.618;2022-12-18T12:23:34;8.20;;;3.80;;
15354;SDS011;7777;52.254;9.618;2022-12-18T12:29:38;5.57;;;3.53;;
15354;SDS011;7777;52.254;9.618;2022-12-18T12:35:25;6.70;;;3.27;;
15354;SDS011;7777;52.254;9.618;2022-12-18T12:38:34;5.53;;;3.13;;
15354;SDS011;7777;52.254;9.618;2022-12-18T12:41:17;5.67;;;3.10;;
15354;SDS011;7777;52.254;9.618;2022-12-18T12:44:07;6.07;;;3.47;;
15354;SDS011;7777;52.254;9.618;2022-12-18T12:46:40;6.97;;;3.40;;
15354;SDS011;7777;52.254;9.618;2022-12-18T12:49:29;5.43;;;3.00;;
15354;SDS011;7777;52.254;9.618;2022-12-18T12:51:58;8.30;;;3.27;;
15354;SDS011;7777;52.254;9.618;2022-12-18T12:54:32;7.77;;;3.07;;
15354;SDS011;7777;52.254;9.618;2022-12-18T12:59:55;6.23;;;3.27;;
15354;SDS011;7777;52.254;9.618;2022-12-18T13:02:30;7.33;;;3.63;;
15354;SDS011;7777;52.254;9.618;2022-12-18T13:08:22;7.57;;;3.30;;
15354;SDS011;7777;52.254;9.618;2022-12-18T13:10:50;7.33;;;3.43;;
15354;SDS011;7777;52.254;9.618;2022-12-18T13:13:59;5.93;;;2.90;;
15354;SDS011;7777;52.254;9.618;2022-12-18T13:16:24;6.83;;;3.83;;
15354;SDS011;7777;52.254;9.618;2022-12-18T13:18:53;4.67;;;3.10;;
15354;SDS011;7777;52.254;9.618;2022-12-18T13:21:27;8.50;;;3.97;;
15354;SDS011;7777;52.254;9.618;2022-12-18T13:24:20;5.37;;;3.50;;
15354;SDS011;7777;52.254;9.618;2022-12-18T13:26:54;8.27;;;4.00;;
15354;SDS011;7777;52.254;9.618;2022-12-18T13:32:15;6.20;;;3.50;;
15354;SDS011;7777;52.254;9.618;2022-12-18T13:35:08;6.80;;;3.17;;
15354;SDS011;7777;52.254;9.618;2022-12-18T13:38:18;7.47;;;3.70;;
15354;SDS011;7777;52.254;9.618;2022-12-18T13:51:49;7.63;;;3.93;;
15354;SDS011;7777;52.254;9.618;2022-12-18T13:54:35;4.83;;;3.20;;
15354;SDS011;7777;52.254;9.618;2022-12-18T13:57:05;7.83;;;3.63;;
15354;SDS011;7777;52.254;9.618;2022-12-18T13:59:50;7.27;;;3.73;;
15354;SDS011;7777;52.254;9.618;2022-12-18T14:02:17;6.40;;;3.83;;
15354;SDS011;7777;52.254;9.618;2022-12-18T14:04:47;8.97;;;4.80;;
15354;SDS011;7777;52.254;9.618;2022-12-18T14:10:00;9.60;;;4.43;;
15354;SDS011;7777;52.254;9.618;2022-12-18T14:12:28;5.87;;;3.63;;
15354;SDS011;7777;52.254;9.618;2022-12-18T14:17:50;10.43;;;5.03;;
15354;SDS011;7777;52.254;9.618;2022-12-18T14:20:24;11.63;;;4.47;;
15354;SDS011;7777;52.254;9.618;2022-12-18T14:22:51;14.00;;;5.43;;
15354;SDS011;7777;52.254;9.618;2022-12-18T14:27:52;7.13;;;3.47;;
15354;SDS011;7777;52.254;9.618;2022-12-18T14:30:40;9.20;;;3.60;;
15354;SDS011;7777;52.254;9.618;2022-12-18T14:33:13;6.53;;;3.57;;
15354;SDS011;7777;52.254;9.618;2022-12-18T14:38:29;4.60;;;2.50;;
15354;SDS011;7777;52.254;9.618;2022-12-18T14:41:01;4.63;;;2.70;;
15354;SDS011;7777;52.254;9.618;2022-12-18T14:43:35;4.83;;;2.80;;
15354;SDS011;7777;52.254;9.618;2022-12-18T14:46:03;7.40;;;3.53;;
15354;SDS011;7777;52.254;9.618;2022-12-18T14:48:36;5.53;;;3.30;;
15354;SDS011;7777;52.254;9.618;2022-12-18T14:53:45;5.83;;;3.47;;
15354;SDS011;7777;52.254;9.618;2022-12-18T14:56:32;6.97;;;3.30;;
15354;SDS011;7777;52.254;9.618;2022-12-18T14:59:04;5.50;;;3.40;;
15354;SDS011;7777;52.254;9.618;2022-12-18T15:07:15;5.87;;;3.23;;
15354;SDS011;7777;52.254;9.618;2022-12-18T15:10:31;6.10;;;2.93;;
15354;SDS011;7777;52.254;9.618;2022-12-18T15:20:41;5.20;;;3.33;;
15354;SDS011;7777;52.254;9.618;2022-12-18T15:23:36;6.77;;;3.60;;
15354;SDS011;7777;52.254;9.618;2022-12-18T15:26:13;6.77;;;3.33;;
15354;SDS011;7777;52.254;9.618;2022-12-18T15:28:45;6.13;;;3.13;;
15354;SDS011;7777;52.254;9.618;2022-12-18T15:33:43;5.23;;;3.40;;
15354;SDS011;7777;52.254;9.618;2022-12-18T15:36:27;5.67;;;3.33;;
15354;SDS011;7777;52.254;9.618;2022-12-18T15:39:01;5.77;;;3.20;;
15354;SDS011;7777;52.254;9.618;2022-12-18T15:41:27;7.70;;;3.47;;
15354;SDS011;7777;52.254;9.618;2022-12-18T15:43:56;5.23;;;3.40;;
15354;SDS011;7777;52.254;9.618;2022-12-18T15:46:23;5.87;;;3.10;;
15354;SDS011;7777;52.254;9.618;2022-12-18T15:48:52;6.60;;;4.13;;
15354;SDS011;7777;52.254;9.618;2022-12-18T15:51:21;5.47;;;3.27;;
15354;SDS011;7777;52.254;9.618;2022-12-18T15:53:52;6.80;;;3.33;;
15354;SDS011;7777;52.254;9.618;2022-12-18T15:56:21;8.80;;;3.90;;
15354;SDS011;7777;52.254;9.618;2022-12-18T15:59:10;6.43;;;3.90;;
15354;SDS011;7777;52.254;9.618;2022-12-18T16:01:38;6.27;;;3.43;;
15354;SDS011;7777;52.254;9.618;2022-12-18T16:04:12;7.40;;;3.87;;
15354;SDS011;7777;52.254;9.618;2022-12-18T16:06:40;8.83;;;4.97;;
15354;SDS011;7777;52.254;9.618;2022-12-18T16:09:06;6.03;;;4.07;;
15354;SDS011;7777;52.254;9.618;2022-12-18T16:11:33;7.03;;;4.07;;
15354;SDS011;7777;52.254;9.618;2022-12-18T16:14:24;6.33;;;3.90;;
15354;SDS011;7777;52.254;9.618;2022-12-18T16:16:54;7.00;;;4.50;;
15354;SDS011;7777;52.254;9.618;2022-12-18T16:19:26;5.83;;;3.70;;
15354;SDS011;7777;52.254;9.618;2022-12-18T16:21:54;10.10;;;3.97;;
15354;SDS011;7777;52.254;9.618;2022-12-18T16:24:22;6.40;;;3.73;;
15354;SDS011;7777;52.254;9.618;2022-12-18T16:26:50;6.87;;;3.80;;
15354;SDS011;7777;52.254;9.618;2022-12-18T16:29:17;7.27;;;3.80;;
15354;SDS011;7777;52.254;9.618;2022-12-18T16:31:49;8.40;;;4.30;;
15354;SDS011;7777;52.254;9.618;2022-12-18T16:34:20;7.67;;;4.57;;
15354;SDS011;7777;52.254;9.618;2022-12-18T16:36:51;7.17;;;4.00;;
15354;SDS011;7777;52.254;9.618;2022-12-18T16:39:21;7.10;;;4.33;;
15354;SDS011;7777;52.254;9.618;2022-12-18T16:41:47;7.03;;;4.00;;
15354;SDS011;7777;52.254;9.618;2022-12-18T16:44:13;7.13;;;4.20;;
15354;SDS011;7777;52.254;9.618;2022-12-18T16:46:39;6.57;;;4.00;;
15354;SDS011;7777;52.254;9.618;2022-12-18T16:49:13;7.03;;;4.13;;
15354;SDS011;7777;52.254;9.618;2022-12-18T16:51:43;9.97;;;4.47;;
15354;SDS011;7777;52.254;9.618;2022-12-18T16:54:10;8.73;;;4.07;;
15354;SDS011;7777;52.254;9.618;2022-12-18T16:56:36;7.20;;;4.37;;
15354;SDS011;7777;52.254;9.618;2022-12-18T16:59:03;6.63;;;4.07;;
15354;SDS011;7777;52.254;9.618;2022-12-18T17:01:30;9.37;;;4.83;;
15354;SDS011;7777;52.254;9.618;2022-12-18T17:04:04;7.13;;;4.33;;
15354;SDS011;7777;52.254;9.618;2022-12-18T17:06:32;9.47;;;5.20;;
15354;SDS011;7777;52.254;9.618;2022-12-18T17:09:01;9.43;;;4.50;;
15354;SDS011;7777;52.254;9.618;2022-12-18T17:11:30;8.53;;;4.70;;
15354;SDS011;7777;52.254;9.618;2022-12-18T17:13:58;6.57;;;4.33;;
15354;SDS011;7777;52.254;9.618;2022-12-18T17:16:30;8.63;;;4.30;;
15354;SDS011;7777;52.254;9.618;2022-12-18T17:18:56;9.00;;;4.67;;
15354;SDS011;7777;52.254;9.618;2022-12-18T17:21:22;8.37;;;5.07;;
15354;SDS011;7777;52.254;9.618;2022-12-18T17:23:48;9.60;;;4.67;;
15354;SDS011;7777;52.254;9.618;2022-12-18T17:26:14;7.33;;;4.47;;